sensor_id;sensor_type;location;lat;lon;timestamp;P1;durP1;ratioP1;P2;durP2;ratioP2
20179;SDS011;10249;48.900;9.090;2024-02-26T00:01:03;9.73;;;9.43;;
20179;SDS011;10249;48.900;9.090;2024-02-26T00:03:30;9.83;;;9.53;;
20179;SDS011;10249;48.900;9.090;2024-02-26T00:06:00;10.13;;;9.73;;
20179;SDS011;10249;48.900;9.090;2024-02-26T00:08:27;9.97;;;9.67;;
20179;SDS011;10249;48.900;9.090;2024-02-26T00:10:56;10.10;;;9.70;;
20179;SDS011;10249;48.900;9.090;2024-02-26T00:13:23;10.27;;;9.87;;
20179;SDS011;10249;48.900;9.090;2024-02-26T00:15:50;10.63;;;10.23;;
20179;SDS011;10249;48.900;9.090;2024-02-26T00:18:17;10.40;;;10.00;;
20179;SDS011;10249;48.900;9.090;2024-02-26T00:20:44;9.97;;;9.67;;
20179;SDS011;10249;48.900;9.090;2024-02-26T00:23:11;10.00;;;9.70;;
20179;SDS011;10249;48.900;9.090;2024-02-26T00:25:38;9.83;;;9.53;;
20179;SDS011;10249;48.900;9.090;2024-02-26T00:28:08;9.70;;;9.40;;
20179;SDS011;10249;48.900;9.090;2024-02-26T00:30:35;10.17;;;9.77;;
20179;SDS011;10249;48.900;9.090;2024-02-26T00:33:02;10.33;;;9.93;;
20179;SDS011;10249;48.900;9.090;2024-02-26T00:35:30;10.33;;;9.93;;
20179;SDS011;10249;48.900;9.090;2024-02-26T00:37:57;10.50;;;10.10;;
20179;SDS011;10249;48.900;9.090;2024-02-26T00:40:26;10.80;;;10.40;;
20179;SDS011;10249;48.900;9.090;2024-02-26T00:42:53;10.90;;;10.50;;
20179;SDS011;10249;48.900;9.090;2024-02-26T00:45:21;10.60;;;10.20;;
20179;SDS011;10249;48.900;9.090;2024-02-26T00:47:48;10.57;;;10.17;;
20179;SDS011;10249;48.900;9.090;2024-02-26T00:50:15;10.30;;;9.90;;
20179;SDS011;10249;48.900;9.090;2024-02-26T00:52:43;10.10;;;9.70;;
20179;SDS011;10249;48.900;9.090;2024-02-26T00:55:10;9.87;;;9.57;;
20179;SDS011;10249;48.900;9.090;2024-02-26T00:57:37;9.50;;;9.20;;
20179;SDS011;10249;48.900;9.090;2024-02-26T01:00:06;9.27;;;8.97;;
20179;SDS011;10249;48.900;9.090;2024-02-26T01:02:35;8.90;;;8.60;;
20179;SDS011;10249;48.900;9.090;2024-02-26T01:05:03;8.73;;;8.43;;
20179;SDS011;10249;48.900;9.090;2024-02-26T01:07:31;8.63;;;8.33;;
20179;SDS011;10249;48.900;9.090;2024-02-26T01:10:00;8.80;;;8.50;;
20179;SDS011;10249;48.900;9.090;2024-02-26T01:12:28;8.50;;;8.20;;
20179;SDS011;10249;48.900;9.090;2024-02-26T01:14:55;8.90;;;8.60;;
20179;SDS011;10249;48.900;9.090;2024-02-26T01:17:22;8.90;;;8.60;;
20179;SDS011;10249;48.900;9.090;2024-02-26T01:19:50;8.70;;;8.40;;
20179;SDS011;10249;48.900;9.090;2024-02-26T01:22:18;8.60;;;8.30;;
20179;SDS011;10249;48.900;9.090;2024-02-26T01:24:45;8.67;;;8.37;;
20179;SDS011;10249;48.900;9.090;2024-02-26T01:27:13;8.00;;;7.80;;
20179;SDS011;10249;48.900;9.090;2024-02-26T01:29:40;8.40;;;8.10;;
20179;SDS011;10249;48.900;9.090;2024-02-26T01:32:08;8.00;;;7.80;;
20179;SDS011;10249;48.900;9.090;2024-02-26T01:34:36;7.97;;;7.77;;
20179;SDS011;10249;48.900;9.090;2024-02-26T01:37:04;8.30;;;8.00;;
20179;SDS011;10249;48.900;9.090;2024-02-26T01:39:31;8.50;;;8.20;;
20179;SDS011;10249;48.900;9.090;2024-02-26T01:41:58;8.70;;;8.40;;
20179;SDS011;10249;48.900;9.090;2024-02-26T01:44:26;8.97;;;8.67;;
20179;SDS011;10249;48.900;9.090;2024-02-26T01:46:53;9.00;;;8.70;;
20179;SDS011;10249;48.900;9.090;2024-02-26T01:49:20;9.30;;;9.00;;
20179;SDS011;10249;48.900;9.090;2024-02-26T01:51:46;9.47;;;9.17;;
20179;SDS011;10249;48.900;9.090;2024-02-26T01:54:15;9.40;;;9.10;;
20179;SDS011;10249;48.900;9.090;2024-02-26T01:56:42;9.60;;;9.30;;
20179;SDS011;10249;48.900;9.090;2024-02-26T01:59:09;9.70;;;9.40;;
20179;SDS011;10249;48.900;9.090;2024-02-26T02:01:37;9.40;;;9.10;;
20179;SDS011;10249;48.900;9.090;2024-02-26T02:04:04;9.40;;;9.10;;
20179;SDS011;10249;48.900;9.090;2024-02-26T02:06:32;9.40;;;9.10;;
20179;SDS011;10249;48.900;9.090;2024-02-26T02:08:59;9.10;;;8.80;;
20179;SDS011;10249;48.900;9.090;2024-02-26T02:11:32;9.43;;;9.13;;
20179;SDS011;10249;48.900;9.090;2024-02-26T02:14:00;9.40;;;9.10;;
20179;SDS011;10249;48.900;9.090;2024-02-26T02:16:27;9.20;;;8.90;;
20179;SDS011;10249;48.900;9.090;2024-02-26T02:18:54;9.10;;;8.80;;
20179;SDS011;10249;48.900;9.090;2024-02-26T02:21:22;9.27;;;8.97;;
20179;SDS011;10249;48.900;9.090;2024-02-26T02:23:49;9.33;;;9.03;;
20179;SDS011;10249;48.900;9.090;2024-02-26T02:26:16;9.20;;;8.90;;
20179;SDS011;10249;48.900;9.090;2024-02-26T02:28:44;8.63;;;8.33;;
20179;SDS011;10249;48.900;9.090;2024-02-26T02:31:12;8.50;;;8.20;;
20179;SDS011;10249;48.900;9.090;2024-02-26T02:33:39;8.30;;;8.00;;
20179;SDS011;10249;48.900;9.090;2024-02-26T02:36:06;8.20;;;7.90;;
20179;SDS011;10249;48.900;9.090;2024-02-26T02:38:36;7.80;;;7.60;;
20179;SDS011;10249;48.900;9.090;2024-02-26T02:41:03;8.27;;;7.97;;
20179;SDS011;10249;48.900;9.090;2024-02-26T02:43:31;8.40;;;8.10;;
20179;SDS011;10249;48.900;9.090;2024-02-26T02:45:58;8.77;;;8.47;;
20179;SDS011;10249;48.900;9.090;2024-02-26T02:48:26;9.23;;;8.93;;
20179;SDS011;10249;48.900;9.090;2024-02-26T02:50:53;8.80;;;8.50;;
20179;SDS011;10249;48.900;9.090;2024-02-26T02:53:20;9.20;;;8.90;;
20179;SDS011;10249;48.900;9.090;2024-02-26T02:55:49;9.23;;;8.93;;
20179;SDS011;10249;48.900;9.090;2024-02-26T02:58:16;9.07;;;8.77;;
20179;SDS011;10249;48.900;9.090;2024-02-26T03:00:44;9.40;;;9.10;;
20179;SDS011;10249;48.900;9.090;2024-02-26T03:03:11;9.07;;;8.77;;
20179;SDS011;10249;48.900;9.090;2024-02-26T03:05:38;9.10;;;8.80;;
20179;SDS011;10249;48.900;9.090;2024-02-26T03:08:05;8.80;;;8.50;;
20179;SDS011;10249;48.900;9.090;2024-02-26T03:10:32;8.70;;;8.40;;
20179;SDS011;10249;48.900;9.090;2024-02-26T03:13:01;8.80;;;8.50;;
20179;SDS011;10249;48.900;9.090;2024-02-26T03:15:28;8.50;;;8.20;;
20179;SDS011;10249;48.900;9.090;2024-02-26T03:17:55;8.07;;;7.87;;
20179;SDS011;10249;48.900;9.090;2024-02-26T03:20:22;7.80;;;7.60;;
20179;SDS011;10249;48.900;9.090;2024-02-26T03:22:49;7.97;;;7.77;;
20179;SDS011;10249;48.900;9.090;2024-02-26T03:25:17;8.40;;;8.10;;
20179;SDS011;10249;48.900;9.090;2024-02-26T03:27:44;8.07;;;7.80;;
20179;SDS011;10249;48.900;9.090;2024-02-26T03:30:13;8.27;;;7.97;;
20179;SDS011;10249;48.900;9.090;2024-02-26T03:32:40;8.40;;;8.10;;
20179;SDS011;10249;48.900;9.090;2024-02-26T03:35:07;8.03;;;7.83;;
20179;SDS011;10249;48.900;9.090;2024-02-26T03:37:34;7.90;;;7.70;;
20179;SDS011;10249;48.900;9.090;2024-02-26T03:40:02;8.40;;;8.10;;
20179;SDS011;10249;48.900;9.090;2024-02-26T03:42:29;8.60;;;8.30;;
20179;SDS011;10249;48.900;9.090;2024-02-26T03:44:56;9.20;;;8.90;;
20179;SDS011;10249;48.900;9.090;2024-02-26T03:47:25;8.80;;;8.50;;
20179;SDS011;10249;48.900;9.090;2024-02-26T03:49:52;8.83;;;8.53;;
20179;SDS011;10249;48.900;9.090;2024-02-26T03:52:19;8.93;;;8.63;;
20179;SDS011;10249;48.900;9.090;2024-02-26T03:54:46;8.73;;;8.43;;
20179;SDS011;10249;48.900;9.090;2024-02-26T03:57:14;9.27;;;8.97;;
20179;SDS011;10249;48.900;9.090;2024-02-26T03:59:41;8.93;;;8.63;;
20179;SDS011;10249;48.900;9.090;2024-02-26T04:02:09;9.50;;;9.20;;
20179;SDS011;10249;48.900;9.090;2024-02-26T04:04:37;9.20;;;8.90;;
20179;SDS011;10249;48.900;9.090;2024-02-26T04:07:04;9.10;;;8.80;;
20179;SDS011;10249;48.900;9.090;2024-02-26T04:09:31;8.80;;;8.50;;
20179;SDS011;10249;48.900;9.090;2024-02-26T04:11:58;8.87;;;8.57;;
20179;SDS011;10249;48.900;9.090;2024-02-26T04:14:25;9.20;;;8.90;;
20179;SDS011;10249;48.900;9.090;2024-02-26T04:16:53;9.10;;;8.80;;
20179;SDS011;10249;48.900;9.090;2024-02-26T04:19:20;9.00;;;8.70;;
20179;SDS011;10249;48.900;9.090;2024-02-26T04:21:49;9.00;;;8.70;;
20179;SDS011;10249;48.900;9.090;2024-02-26T04:24:16;9.30;;;9.00;;
20179;SDS011;10249;48.900;9.090;2024-02-26T04:26:44;9.10;;;8.80;;
20179;SDS011;10249;48.900;9.090;2024-02-26T04:29:11;9.00;;;8.70;;
20179;SDS011;10249;48.900;9.090;2024-02-26T04:31:38;8.80;;;8.50;;
20179;SDS011;10249;48.900;9.090;2024-02-26T04:34:05;9.00;;;8.70;;
20179;SDS011;10249;48.900;9.090;2024-02-26T04:36:32;8.80;;;8.50;;
20179;SDS011;10249;48.900;9.090;2024-02-26T04:39:01;9.20;;;8.90;;
20179;SDS011;10249;48.900;9.090;2024-02-26T04:41:28;8.77;;;8.47;;
20179;SDS011;10249;48.900;9.090;2024-02-26T04:43:55;8.60;;;8.30;;
20179;SDS011;10249;48.900;9.090;2024-02-26T04:46:22;9.00;;;8.70;;
20179;SDS011;10249;48.900;9.090;2024-02-26T04:48:50;9.00;;;8.70;;
20179;SDS011;10249;48.900;9.090;2024-02-26T04:51:17;8.90;;;8.60;;
20179;SDS011;10249;48.900;9.090;2024-02-26T04:53:44;9.07;;;8.77;;
20179;SDS011;10249;48.900;9.090;2024-02-26T04:56:13;9.37;;;9.07;;
20179;SDS011;10249;48.900;9.090;2024-02-26T04:58:40;9.60;;;9.30;;
20179;SDS011;10249;48.900;9.090;2024-02-26T05:01:07;9.53;;;9.23;;
20179;SDS011;10249;48.900;9.090;2024-02-26T05:03:35;9.60;;;9.30;;
20179;SDS011;10249;48.900;9.090;2024-02-26T05:06:03;9.70;;;9.40;;
20179;SDS011;10249;48.900;9.090;2024-02-26T05:08:30;9.50;;;9.20;;
20179;SDS011;10249;48.900;9.090;2024-02-26T05:10:58;9.70;;;9.40;;
20179;SDS011;10249;48.900;9.090;2024-02-26T05:13:29;9.57;;;9.27;;
20179;SDS011;10249;48.900;9.090;2024-02-26T05:15:56;9.60;;;9.30;;
20179;SDS011;10249;48.900;9.090;2024-02-26T05:18:23;9.50;;;9.20;;
20179;SDS011;10249;48.900;9.090;2024-02-26T05:20:50;9.37;;;9.07;;
20179;SDS011;10249;48.900;9.090;2024-02-26T05:23:17;9.33;;;9.03;;
20179;SDS011;10249;48.900;9.090;2024-02-26T05:25:44;9.90;;;9.60;;
20179;SDS011;10249;48.900;9.090;2024-02-26T05:28:12;9.90;;;9.60;;
20179;SDS011;10249;48.900;9.090;2024-02-26T05:30:42;9.90;;;9.60;;
20179;SDS011;10249;48.900;9.090;2024-02-26T05:33:09;9.90;;;9.60;;
20179;SDS011;10249;48.900;9.090;2024-02-26T05:35:37;9.80;;;9.50;;
20179;SDS011;10249;48.900;9.090;2024-02-26T05:38:04;10.20;;;9.80;;
20179;SDS011;10249;48.900;9.090;2024-02-26T05:40:31;10.50;;;10.10;;
20179;SDS011;10249;48.900;9.090;2024-02-26T05:42:58;10.30;;;9.90;;
20179;SDS011;10249;48.900;9.090;2024-02-26T05:45:25;9.80;;;9.50;;
20179;SDS011;10249;48.900;9.090;2024-02-26T05:47:54;10.10;;;9.77;;
20179;SDS011;10249;48.900;9.090;2024-02-26T05:50:21;9.60;;;9.30;;
20179;SDS011;10249;48.900;9.090;2024-02-26T05:52:48;9.73;;;9.43;;
20179;SDS011;10249;48.900;9.090;2024-02-26T05:55:15;9.10;;;8.80;;
20179;SDS011;10249;48.900;9.090;2024-02-26T05:57:42;9.10;;;8.80;;
20179;SDS011;10249;48.900;9.090;2024-02-26T06:00:10;9.07;;;8.77;;
20179;SDS011;10249;48.900;9.090;2024-02-26T06:02:38;9.00;;;8.70;;
20179;SDS011;10249;48.900;9.090;2024-02-26T06:05:07;8.90;;;8.60;;
20179;SDS011;10249;48.900;9.090;2024-02-26T06:07:34;9.13;;;8.83;;
20179;SDS011;10249;48.900;9.090;2024-02-26T06:10:01;8.70;;;8.40;;
20179;SDS011;10249;48.900;9.090;2024-02-26T06:12:30;8.80;;;8.50;;
20179;SDS011;10249;48.900;9.090;2024-02-26T06:14:57;8.60;;;8.30;;
20179;SDS011;10249;48.900;9.090;2024-02-26T06:17:26;8.17;;;7.87;;
20179;SDS011;10249;48.900;9.090;2024-02-26T06:19:53;8.53;;;8.23;;
20179;SDS011;10249;48.900;9.090;2024-02-26T06:22:22;8.30;;;8.00;;
20179;SDS011;10249;48.900;9.090;2024-02-26T06:24:49;7.97;;;7.73;;
20179;SDS011;10249;48.900;9.090;2024-02-26T06:27:16;8.30;;;8.00;;
20179;SDS011;10249;48.900;9.090;2024-02-26T06:29:43;8.33;;;8.03;;
20179;SDS011;10249;48.900;9.090;2024-02-26T06:32:10;8.67;;;8.37;;
20179;SDS011;10249;48.900;9.090;2024-02-26T06:34:37;8.60;;;8.30;;
20179;SDS011;10249;48.900;9.090;2024-02-26T06:37:06;8.40;;;8.10;;
20179;SDS011;10249;48.900;9.090;2024-02-26T06:39:34;8.20;;;7.90;;
20179;SDS011;10249;48.900;9.090;2024-02-26T06:42:03;8.57;;;8.27;;
20179;SDS011;10249;48.900;9.090;2024-02-26T06:44:30;8.70;;;8.40;;
20179;SDS011;10249;48.900;9.090;2024-02-26T06:46:57;8.60;;;8.30;;
20179;SDS011;10249;48.900;9.090;2024-02-26T06:49:25;8.80;;;8.50;;
20179;SDS011;10249;48.900;9.090;2024-02-26T06:51:53;8.60;;;8.30;;
20179;SDS011;10249;48.900;9.090;2024-02-26T06:54:20;8.77;;;8.47;;
20179;SDS011;10249;48.900;9.090;2024-02-26T06:56:48;7.97;;;7.77;;
20179;SDS011;10249;48.900;9.090;2024-02-26T06:59:15;8.20;;;7.90;;
20179;SDS011;10249;48.900;9.090;2024-02-26T07:01:43;7.73;;;7.53;;
20179;SDS011;10249;48.900;9.090;2024-02-26T07:04:10;8.00;;;7.80;;
20179;SDS011;10249;48.900;9.090;2024-02-26T07:06:38;8.00;;;7.80;;
20179;SDS011;10249;48.900;9.090;2024-02-26T07:09:05;8.00;;;7.80;;
20179;SDS011;10249;48.900;9.090;2024-02-26T07:11:32;8.30;;;8.00;;
20179;SDS011;10249;48.900;9.090;2024-02-26T07:14:00;8.40;;;8.10;;
20179;SDS011;10249;48.900;9.090;2024-02-26T07:16:27;8.67;;;8.37;;
20179;SDS011;10249;48.900;9.090;2024-02-26T07:18:55;8.53;;;8.23;;
20179;SDS011;10249;48.900;9.090;2024-02-26T07:21:22;9.10;;;8.80;;
20179;SDS011;10249;48.900;9.090;2024-02-26T07:23:49;9.20;;;8.90;;
20179;SDS011;10249;48.900;9.090;2024-02-26T07:26:16;9.83;;;9.53;;
20179;SDS011;10249;48.900;9.090;2024-02-26T07:28:44;9.90;;;9.60;;
20179;SDS011;10249;48.900;9.090;2024-02-26T07:31:13;9.03;;;8.73;;
20179;SDS011;10249;48.900;9.090;2024-02-26T07:33:40;9.00;;;8.70;;
20179;SDS011;10249;48.900;9.090;2024-02-26T07:36:07;8.90;;;8.60;;
20179;SDS011;10249;48.900;9.090;2024-02-26T07:38:34;9.10;;;8.80;;
20179;SDS011;10249;48.900;9.090;2024-02-26T07:41:01;9.10;;;8.80;;
20179;SDS011;10249;48.900;9.090;2024-02-26T07:43:28;9.27;;;8.97;;
20179;SDS011;10249;48.900;9.090;2024-02-26T07:45:56;9.77;;;9.47;;
20179;SDS011;10249;48.900;9.090;2024-02-26T07:48:24;9.57;;;9.27;;
20179;SDS011;10249;48.900;9.090;2024-02-26T07:50:51;9.43;;;9.13;;
20179;SDS011;10249;48.900;9.090;2024-02-26T07:53:18;9.60;;;9.30;;
20179;SDS011;10249;48.900;9.090;2024-02-26T07:55:46;9.60;;;9.30;;
20179;SDS011;10249;48.900;9.090;2024-02-26T07:58:13;9.83;;;9.53;;
20179;SDS011;10249;48.900;9.090;2024-02-26T08:00:40;9.80;;;9.50;;
20179;SDS011;10249;48.900;9.090;2024-02-26T08:03:08;9.70;;;9.40;;
20179;SDS011;10249;48.900;9.090;2024-02-26T08:05:37;9.77;;;9.47;;
20179;SDS011;10249;48.900;9.090;2024-02-26T08:08:06;9.77;;;9.47;;
20179;SDS011;10249;48.900;9.090;2024-02-26T08:10:33;9.90;;;9.60;;
20179;SDS011;10249;48.900;9.090;2024-02-26T08:13:00;9.83;;;9.53;;
20179;SDS011;10249;48.900;9.090;2024-02-26T08:15:31;9.80;;;9.50;;
20179;SDS011;10249;48.900;9.090;2024-02-26T08:17:59;9.77;;;9.47;;
20179;SDS011;10249;48.900;9.090;2024-02-26T08:20:27;9.80;;;9.50;;
20179;SDS011;10249;48.900;9.090;2024-02-26T08:22:56;9.67;;;9.37;;
20179;SDS011;10249;48.900;9.090;2024-02-26T08:25:23;9.70;;;9.40;;
20179;SDS011;10249;48.900;9.090;2024-02-26T08:27:50;9.50;;;9.20;;
20179;SDS011;10249;48.900;9.090;2024-02-26T08:30:17;9.53;;;9.23;;
20179;SDS011;10249;48.900;9.090;2024-02-26T08:32:44;9.50;;;9.20;;
20179;SDS011;10249;48.900;9.090;2024-02-26T08:35:12;9.77;;;9.47;;
20179;SDS011;10249;48.900;9.090;2024-02-26T08:37:39;9.60;;;9.30;;
20179;SDS011;10249;48.900;9.090;2024-02-26T08:40:08;9.40;;;9.10;;
20179;SDS011;10249;48.900;9.090;2024-02-26T08:42:35;9.87;;;9.57;;
20179;SDS011;10249;48.900;9.090;2024-02-26T08:45:02;9.90;;;9.60;;
20179;SDS011;10249;48.900;9.090;2024-02-26T08:47:30;9.87;;;9.57;;
20179;SDS011;10249;48.900;9.090;2024-02-26T08:49:57;10.20;;;9.90;;
20179;SDS011;10249;48.900;9.090;2024-02-26T08:52:24;9.87;;;9.57;;
20179;SDS011;10249;48.900;9.090;2024-02-26T08:54:51;10.10;;;9.80;;
20179;SDS011;10249;48.900;9.090;2024-02-26T08:57:20;10.33;;;9.93;;
20179;SDS011;10249;48.900;9.090;2024-02-26T08:59:47;10.70;;;10.30;;
20179;SDS011;10249;48.900;9.090;2024-02-26T09:02:14;10.33;;;9.93;;
20179;SDS011;10249;48.900;9.090;2024-02-26T09:04:41;10.43;;;10.03;;
20179;SDS011;10249;48.900;9.090;2024-02-26T09:07:08;10.70;;;10.30;;
20179;SDS011;10249;48.900;9.090;2024-02-26T09:09:35;10.50;;;10.10;;
20179;SDS011;10249;48.900;9.090;2024-02-26T09:12:03;10.50;;;10.10;;
20179;SDS011;10249;48.900;9.090;2024-02-26T09:14:31;10.63;;;10.23;;
20179;SDS011;10249;48.900;9.090;2024-02-26T09:16:58;10.60;;;10.20;;
20179;SDS011;10249;48.900;9.090;2024-02-26T09:19:25;10.00;;;9.70;;
20179;SDS011;10249;48.900;9.090;2024-02-26T09:21:53;10.10;;;9.77;;
20179;SDS011;10249;48.900;9.090;2024-02-26T09:24:22;10.43;;;10.03;;
20179;SDS011;10249;48.900;9.090;2024-02-26T09:26:50;10.60;;;10.20;;
20179;SDS011;10249;48.900;9.090;2024-02-26T09:29:17;10.37;;;9.97;;
20179;SDS011;10249;48.900;9.090;2024-02-26T09:31:46;10.57;;;10.17;;
20179;SDS011;10249;48.900;9.090;2024-02-26T09:34:13;10.80;;;10.40;;
20179;SDS011;10249;48.900;9.090;2024-02-26T09:36:40;10.80;;;10.40;;
20179;SDS011;10249;48.900;9.090;2024-02-26T09:39:07;10.90;;;10.50;;
20179;SDS011;10249;48.900;9.090;2024-02-26T09:41:36;11.17;;;10.77;;
20179;SDS011;10249;48.900;9.090;2024-02-26T09:44:04;11.50;;;11.10;;
20179;SDS011;10249;48.900;9.090;2024-02-26T09:46:32;11.43;;;11.03;;
20179;SDS011;10249;48.900;9.090;2024-02-26T09:49:01;11.40;;;11.00;;
20179;SDS011;10249;48.900;9.090;2024-02-26T09:51:28;11.83;;;11.33;;
20179;SDS011;10249;48.900;9.090;2024-02-26T09:53:55;11.60;;;11.13;;
20179;SDS011;10249;48.900;9.090;2024-02-26T09:56:23;12.00;;;11.50;;
20179;SDS011;10249;48.900;9.090;2024-02-26T09:58:50;11.90;;;11.40;;
20179;SDS011;10249;48.900;9.090;2024-02-26T10:01:19;11.93;;;11.50;;
20179;SDS011;10249;48.900;9.090;2024-02-26T10:03:48;11.03;;;10.63;;
20179;SDS011;10249;48.900;9.090;2024-02-26T10:06:20;11.10;;;10.70;;
20179;SDS011;10249;48.900;9.090;2024-02-26T10:08:47;11.00;;;10.60;;
20179;SDS011;10249;48.900;9.090;2024-02-26T10:11:15;10.80;;;10.40;;
20179;SDS011;10249;48.900;9.090;2024-02-26T10:13:42;10.77;;;10.37;;
20179;SDS011;10249;48.900;9.090;2024-02-26T10:16:09;10.93;;;10.53;;
20179;SDS011;10249;48.900;9.090;2024-02-26T10:18:46;11.17;;;10.77;;
20179;SDS011;10249;48.900;9.090;2024-02-26T10:21:13;11.43;;;11.03;;
20179;SDS011;10249;48.900;9.090;2024-02-26T10:23:45;11.50;;;11.10;;
20179;SDS011;10249;48.900;9.090;2024-02-26T10:26:12;12.10;;;11.60;;
20179;SDS011;10249;48.900;9.090;2024-02-26T10:28:41;12.23;;;11.73;;
20179;SDS011;10249;48.900;9.090;2024-02-26T10:31:08;12.97;;;12.47;;
20179;SDS011;10249;48.900;9.090;2024-02-26T10:33:35;12.00;;;11.50;;
20179;SDS011;10249;48.900;9.090;2024-02-26T10:36:03;12.20;;;11.70;;
20179;SDS011;10249;48.900;9.090;2024-02-26T10:38:32;12.20;;;11.70;;
20179;SDS011;10249;48.900;9.090;2024-02-26T10:41:00;12.40;;;11.90;;
20179;SDS011;10249;48.900;9.090;2024-02-26T10:43:28;12.60;;;12.10;;
20179;SDS011;10249;48.900;9.090;2024-02-26T10:45:55;12.70;;;12.20;;
20179;SDS011;10249;48.900;9.090;2024-02-26T10:48:22;12.73;;;12.23;;
20179;SDS011;10249;48.900;9.090;2024-02-26T10:50:50;13.17;;;12.57;;
20179;SDS011;10249;48.900;9.090;2024-02-26T10:53:19;13.23;;;12.63;;
20179;SDS011;10249;48.900;9.090;2024-02-26T10:55:48;13.13;;;12.53;;
20179;SDS011;10249;48.900;9.090;2024-02-26T10:58:17;13.10;;;12.50;;
20179;SDS011;10249;48.900;9.090;2024-02-26T11:00:44;13.30;;;12.70;;
20179;SDS011;10249;48.900;9.090;2024-02-26T11:03:13;13.70;;;13.10;;
20179;SDS011;10249;48.900;9.090;2024-02-26T11:05:41;13.60;;;13.00;;
20179;SDS011;10249;48.900;9.090;2024-02-26T11:08:08;13.60;;;13.00;;
20179;SDS011;10249;48.900;9.090;2024-02-26T11:10:36;13.60;;;13.00;;
20179;SDS011;10249;48.900;9.090;2024-02-26T11:13:04;13.60;;;13.00;;
20179;SDS011;10249;48.900;9.090;2024-02-26T11:15:33;13.83;;;13.23;;
20179;SDS011;10249;48.900;9.090;2024-02-26T11:18:00;13.80;;;13.20;;
20179;SDS011;10249;48.900;9.090;2024-02-26T11:20:28;13.63;;;13.03;;
20179;SDS011;10249;48.900;9.090;2024-02-26T11:22:55;13.57;;;12.97;;
20179;SDS011;10249;48.900;9.090;2024-02-26T11:25:22;13.30;;;12.70;;
20179;SDS011;10249;48.900;9.090;2024-02-26T11:27:50;13.27;;;12.67;;
20179;SDS011;10249;48.900;9.090;2024-02-26T11:30:18;13.83;;;13.23;;
20179;SDS011;10249;48.900;9.090;2024-02-26T11:32:47;14.17;;;13.47;;
20179;SDS011;10249;48.900;9.090;2024-02-26T11:35:15;14.10;;;13.40;;
20179;SDS011;10249;48.900;9.090;2024-02-26T11:37:51;14.73;;;14.03;;
20179;SDS011;10249;48.900;9.090;2024-02-26T11:40:18;15.10;;;14.40;;
20179;SDS011;10249;48.900;9.090;2024-02-26T11:42:45;15.20;;;14.50;;
20179;SDS011;10249;48.900;9.090;2024-02-26T11:48:04;15.07;;;14.27;;
20179;SDS011;10249;48.900;9.090;2024-02-26T11:50:34;15.10;;;14.40;;
20179;SDS011;10249;48.900;9.090;2024-02-26T11:53:21;15.23;;;14.53;;
20179;SDS011;10249;48.900;9.090;2024-02-26T11:58:31;15.70;;;14.90;;
20179;SDS011;10249;48.900;9.090;2024-02-26T12:00:58;16.00;;;15.20;;
20179;SDS011;10249;48.900;9.090;2024-02-26T12:03:26;16.20;;;15.40;;
20179;SDS011;10249;48.900;9.090;2024-02-26T12:05:53;15.97;;;15.17;;
20179;SDS011;10249;48.900;9.090;2024-02-26T12:08:21;16.20;;;15.40;;
20179;SDS011;10249;48.900;9.090;2024-02-26T12:10:48;16.30;;;15.50;;
20179;SDS011;10249;48.900;9.090;2024-02-26T12:13:16;16.13;;;15.33;;
20179;SDS011;10249;48.900;9.090;2024-02-26T12:15:46;16.17;;;15.37;;
20179;SDS011;10249;48.900;9.090;2024-02-26T12:18:22;16.40;;;15.60;;
20179;SDS011;10249;48.900;9.090;2024-02-26T12:20:58;16.37;;;15.57;;
20179;SDS011;10249;48.900;9.090;2024-02-26T12:23:26;16.43;;;15.53;;
20179;SDS011;10249;48.900;9.090;2024-02-26T12:25:54;15.90;;;15.10;;
20179;SDS011;10249;48.900;9.090;2024-02-26T12:28:27;16.63;;;15.73;;
20179;SDS011;10249;48.900;9.090;2024-02-26T12:30:54;16.30;;;15.40;;
20179;SDS011;10249;48.900;9.090;2024-02-26T12:33:21;16.60;;;15.70;;
20179;SDS011;10249;48.900;9.090;2024-02-26T12:35:50;16.17;;;15.37;;
20179;SDS011;10249;48.900;9.090;2024-02-26T12:38:19;16.27;;;15.37;;
20179;SDS011;10249;48.900;9.090;2024-02-26T12:40:46;16.20;;;15.30;;
20179;SDS011;10249;48.900;9.090;2024-02-26T12:43:14;16.43;;;15.53;;
20179;SDS011;10249;48.900;9.090;2024-02-26T12:45:42;16.60;;;15.70;;
20179;SDS011;10249;48.900;9.090;2024-02-26T12:48:11;16.37;;;15.47;;
20179;SDS011;10249;48.900;9.090;2024-02-26T12:50:39;16.80;;;15.90;;
20179;SDS011;10249;48.900;9.090;2024-02-26T12:53:06;16.97;;;16.07;;
20179;SDS011;10249;48.900;9.090;2024-02-26T12:55:34;17.03;;;16.13;;
20179;SDS011;10249;48.900;9.090;2024-02-26T12:58:04;16.70;;;15.80;;
20179;SDS011;10249;48.900;9.090;2024-02-26T13:00:32;16.60;;;15.70;;
20179;SDS011;10249;48.900;9.090;2024-02-26T13:02:59;16.30;;;15.50;;
20179;SDS011;10249;48.900;9.090;2024-02-26T13:05:27;16.00;;;15.20;;
20179;SDS011;10249;48.900;9.090;2024-02-26T13:07:55;15.90;;;15.10;;
20179;SDS011;10249;48.900;9.090;2024-02-26T13:10:22;15.70;;;14.90;;
20179;SDS011;10249;48.900;9.090;2024-02-26T13:12:52;15.90;;;15.10;;
20179;SDS011;10249;48.900;9.090;2024-02-26T13:15:19;16.00;;;15.20;;
20179;SDS011;10249;48.900;9.090;2024-02-26T13:17:47;16.03;;;15.23;;
20179;SDS011;10249;48.900;9.090;2024-02-26T13:20:24;16.00;;;15.20;;
20179;SDS011;10249;48.900;9.090;2024-02-26T13:22:59;15.67;;;14.87;;
20179;SDS011;10249;48.900;9.090;2024-02-26T13:25:26;16.07;;;15.27;;
20179;SDS011;10249;48.900;9.090;2024-02-26T13:27:54;15.60;;;14.80;;
20179;SDS011;10249;48.900;9.090;2024-02-26T13:30:31;15.90;;;15.10;;
20179;SDS011;10249;48.900;9.090;2024-02-26T13:33:06;16.38;;;15.48;;
20179;SDS011;10249;48.900;9.090;2024-02-26T13:35:33;15.73;;;14.83;;
20179;SDS011;10249;48.900;9.090;2024-02-26T13:38:01;15.83;;;15.03;;
20179;SDS011;10249;48.900;9.090;2024-02-26T13:40:29;15.80;;;15.00;;
20179;SDS011;10249;48.900;9.090;2024-02-26T13:42:57;16.27;;;15.37;;
20179;SDS011;10249;48.900;9.090;2024-02-26T13:45:25;16.00;;;15.20;;
20179;SDS011;10249;48.900;9.090;2024-02-26T13:47:52;15.93;;;15.13;;
20179;SDS011;10249;48.900;9.090;2024-02-26T13:50:19;16.17;;;15.27;;
20179;SDS011;10249;48.900;9.090;2024-02-26T13:52:48;16.30;;;15.40;;
20179;SDS011;10249;48.900;9.090;2024-02-26T13:55:18;16.47;;;15.57;;
20179;SDS011;10249;48.900;9.090;2024-02-26T13:57:47;16.13;;;15.23;;
20179;SDS011;10249;48.900;9.090;2024-02-26T14:00:18;16.63;;;15.73;;
20179;SDS011;10249;48.900;9.090;2024-02-26T14:02:45;16.77;;;15.87;;
20179;SDS011;10249;48.900;9.090;2024-02-26T14:05:12;16.70;;;15.80;;
20179;SDS011;10249;48.900;9.090;2024-02-26T14:07:40;16.50;;;15.60;;
20179;SDS011;10249;48.900;9.090;2024-02-26T14:10:07;16.50;;;15.60;;
20179;SDS011;10249;48.900;9.090;2024-02-26T14:12:35;16.67;;;15.77;;
20179;SDS011;10249;48.900;9.090;2024-02-26T14:15:02;16.67;;;15.77;;
20179;SDS011;10249;48.900;9.090;2024-02-26T14:17:31;16.50;;;15.60;;
20179;SDS011;10249;48.900;9.090;2024-02-26T14:19:58;16.77;;;15.87;;
20179;SDS011;10249;48.900;9.090;2024-02-26T14:22:25;16.90;;;16.00;;
20179;SDS011;10249;48.900;9.090;2024-02-26T14:24:52;16.67;;;15.77;;
20179;SDS011;10249;48.900;9.090;2024-02-26T14:27:19;16.33;;;15.43;;
20179;SDS011;10249;48.900;9.090;2024-02-26T14:29:54;16.37;;;15.47;;
20179;SDS011;10249;48.900;9.090;2024-02-26T14:32:21;16.47;;;15.57;;
20179;SDS011;10249;48.900;9.090;2024-02-26T14:34:50;16.20;;;15.30;;
20179;SDS011;10249;48.900;9.090;2024-02-26T14:37:17;16.30;;;15.40;;
20179;SDS011;10249;48.900;9.090;2024-02-26T14:39:46;16.47;;;15.57;;
20179;SDS011;10249;48.900;9.090;2024-02-26T14:42:14;16.30;;;15.40;;
20179;SDS011;10249;48.900;9.090;2024-02-26T14:44:42;16.27;;;15.37;;